Time;durP1;ratioP1;P1;durP2;ratioP2;P2;SDS_P1;SDS_P2;PMS_P1;PMS_P2;Temp;Humidity;BMP_temperature;BMP_pressure;BME280_temperature;BME280_humidity;BME280_pressure;Samples;Min_cycle;Max_cycle;Signal;HPM_P1;HPM_P2
2023/02/21 02:14:34;;;;;;;2.65;2.00;;;2.60;99.90;;;;;;5022086;28;20072;-93
2023/02/21 02:17:21;;;;;;;3.03;2.72;;;2.40;99.90;;;;;;5019368;28;20045;-93
2023/02/21 02:20:11;;;;;;;3.35;2.33;;;2.40;99.90;;;;;;5018025;28;20076;-94
2023/02/21 02:23:05;;;;;;;6.07;2.90;;;2.20;99.90;;;;;;5023436;28;20040;-93
2023/02/21 02:25:49;;;;;;;4.22;3.10;;;2.30;99.90;;;;;;5022103;28;20040;-94
2023/02/21 02:28:38;;;;;;;2.60;2.40;;;2.40;99.90;;;;;;5015012;28;20024;-94
2023/02/21 02:31:26;;;;;;;3.45;2.50;;;2.50;99.90;;;;;;5014939;28;20053;-93
2023/02/21 02:33:58;;;;;;;2.42;2.22;;;2.50;99.90;;;;;;5019703;28;20433;-93
2023/02/21 02:36:33;;;;;;;5.63;2.78;;;2.30;99.90;;;;;;5024138;28;20054;-94
2023/02/21 02:39:01;;;;;;;5.97;3.42;;;2.30;99.90;;;;;;5015563;28;20031;-92
2023/02/21 02:41:43;;;;;;;4.85;3.33;;;2.30;99.90;;;;;;5018954;28;20077;-91
2023/02/21 02:44:27;;;;;;;5.25;3.50;;;2.30;99.90;;;;;;5022730;28;20030;-92
2023/02/21 02:46:57;;;;;;;5.50;3.42;;;2.30;99.90;;;;;;5015804;28;20042;-92
2023/02/21 02:49:28;;;;;;;7.97;4.30;;;2.20;99.90;;;;;;5022766;28;20034;-92
2023/02/21 02:51:54;;;;;;;5.03;3.38;;;2.10;99.90;;;;;;5010300;28;20058;-93
2023/02/21 02:54:20;;;;;;;4.60;2.83;;;2.10;99.90;;;;;;5024771;28;20613;-93
2023/02/21 02:56:46;;;;;;;4.93;3.40;;;2.00;99.90;;;;;;5011886;28;20065;-93
2023/02/21 02:59:21;;;;;;;9.15;3.50;;;2.00;99.90;;;;;;5021241;28;20025;-92
2023/02/21 03:02:32;;;;;;;5.22;2.97;;;2.10;99.90;;;;;;5022584;28;20115;-91
2023/02/21 03:05:04;;;;;;;6.22;3.08;;;2.10;99.90;;;;;;5021942;28;20038;-92
2023/02/21 03:07:58;;;;;;;4.53;3.25;;;2.20;99.90;;;;;;5025963;28;20046;-92
2023/02/21 03:10:29;;;;;;;6.55;3.42;;;2.30;99.90;;;;;;5010771;28;20045;-92
2023/02/21 03:12:58;;;;;;;4.90;3.45;;;2.30;99.90;;;;;;5021939;28;20038;-93
2023/02/21 03:15:28;;;;;;;3.55;3.22;;;2.40;99.90;;;;;;5019539;28;20030;-92
2023/02/21 03:18:07;;;;;;;7.18;3.85;;;2.20;99.90;;;;;;5020384;28;20052;-91
2023/02/21 03:20:35;;;;;;;4.75;3.05;;;2.10;99.90;;;;;;5022596;28;20100;-91
2023/02/21 03:23:03;;;;;;;4.55;2.67;;;2.00;99.90;;;;;;5023971;28;20036;-92
2023/02/21 03:25:32;;;;;;;3.22;2.88;;;2.00;99.90;;;;;;5029075;28;20482;-92
2023/02/21 03:27:59;;;;;;;;;;;2.00;99.90;;;;;;5027584;28;20064;-92
2023/02/21 03:30:25;;;;;;;2.80;2.05;;;2.10;99.90;;;;;;5021766;28;19928;-92
2023/02/21 03:32:52;;;;;;;3.88;2.58;;;2.00;99.90;;;;;;5006242;28;20035;-90
2023/02/21 03:35:19;;;;;;;3.78;2.97;;;1.90;99.90;;;;;;5010552;28;20108;-91
2023/02/21 03:37:52;;;;;;;3.33;2.63;;;1.80;99.90;;;;;;5011664;28;20049;-90
2023/02/21 03:40:22;;;;;;;3.28;2.65;;;1.80;99.90;;;;;;5019933;28;20037;-92
2023/02/21 03:42:49;;;;;;;3.80;2.58;;;1.90;99.90;;;;;;5022364;28;20026;-91
2023/02/21 03:45:15;;;;;;;5.32;2.72;;;1.80;99.90;;;;;;5010719;28;20021;-92
2023/02/21 03:47:41;;;;;;;3.22;2.42;;;1.70;99.90;;;;;;5035141;28;20025;-92
2023/02/21 03:50:07;;;;;;;6.55;3.17;;;1.60;99.90;;;;;;5023608;28;20061;-92
2023/02/21 03:52:33;;;;;;;4.45;2.80;;;1.50;99.90;;;;;;5025595;28;20057;-91
2023/02/21 03:54:59;;;;;;;3.78;3.00;;;1.60;99.90;;;;;;5018357;28;20091;-91
2023/02/21 03:57:25;;;;;;;5.47;3.05;;;1.70;99.90;;;;;;5016815;28;20133;-90
2023/02/21 03:59:51;;;;;;;3.97;2.45;;;1.60;99.90;;;;;;5018925;28;20027;-92
2023/02/21 04:02:17;;;;;;;3.55;3.25;;;1.60;99.90;;;;;;5019114;28;20029;-93
2023/02/21 04:04:44;;;;;;;4.38;2.45;;;1.50;99.90;;;;;;5027048;28;20029;-91
2023/02/21 04:07:11;;;;;;;6.45;2.78;;;1.40;99.90;;;;;;5016729;28;20596;-92
2023/02/21 04:09:37;;;;;;;4.78;2.72;;;1.40;99.90;;;;;;4993212;28;20088;-91
2023/02/21 04:12:04;;;;;;;4.07;2.50;;;1.30;99.90;;;;;;5000788;28;20051;-92
2023/02/21 04:14:29;;;;;;;3.85;2.38;;;1.30;99.90;;;;;;5022677;28;20058;-91
2023/02/21 04:16:55;;;;;;;3.85;3.17;;;1.40;99.90;;;;;;5018897;28;20085;-91
2023/02/21 04:19:21;;;;;;;2.95;2.65;;;1.50;99.90;;;;;;5021516;28;20025;-92
2023/02/21 04:21:46;;;;;;;3.08;2.60;;;1.50;99.90;;;;;;5021415;28;20030;-91
2023/02/21 04:24:12;;;;;;;3.60;2.20;;;1.40;99.90;;;;;;5022958;28;20027;-93
2023/02/21 04:26:38;;;;;;;2.83;2.10;;;1.40;99.90;;;;;;5022774;28;20041;-92
2023/02/21 04:29:04;;;;;;;1.60;1.50;;;1.30;99.90;;;;;;5019889;28;20092;-92
2023/02/21 04:31:31;;;;;;;2.78;2.40;;;1.20;99.90;;;;;;5023371;28;20041;-91
2023/02/21 04:33:58;;;;;;;1.90;1.80;;;1.00;99.90;;;;;;5021138;28;20144;-91
2023/02/21 04:36:24;;;;;;;3.38;2.30;;;0.70;99.90;;;;;;5034621;28;20068;-91
2023/02/21 04:38:50;;;;;;;2.30;1.95;;;0.40;99.90;;;;;;5019161;28;20038;-90
2023/02/21 04:41:16;;;;;;;2.33;2.15;;;0.20;99.90;;;;;;5015485;28;20061;-91
2023/02/21 04:43:43;;;;;;;2.22;2.08;;;0.10;99.90;;;;;;5018091;28;20025;-90
2023/02/21 04:46:10;;;;;;;8.30;2.42;;;0.20;99.90;;;;;;5012022;28;20029;-91
2023/02/21 04:48:35;;;;;;;2.47;2.28;;;0.30;99.90;;;;;;5016846;28;20046;-91
2023/02/21 04:51:01;;;;;;;3.33;2.63;;;0.40;99.90;;;;;;5014438;28;20029;-91
2023/02/21 04:53:27;;;;;;;3.92;2.80;;;0.50;99.90;;;;;;5013457;28;20038;-91
2023/02/21 04:55:52;;;;;;;7.00;3.05;;;0.60;99.90;;;;;;5011828;28;20109;-93
2023/02/21 04:58:18;;;;;;;4.70;3.38;;;0.70;99.90;;;;;;5015868;28;20085;-92
2023/02/21 05:00:43;;;;;;;3.10;2.70;;;0.70;99.90;;;;;;5013122;28;20042;-93
2023/02/21 05:03:09;;;;;;;3.08;2.83;;;0.80;99.90;;;;;;5012126;28;20045;-93
2023/02/21 05:05:35;;;;;;;3.90;3.00;;;0.80;99.90;;;;;;5016431;28;20033;-93
2023/02/21 05:08:00;;;;;;;2.97;2.78;;;0.90;99.90;;;;;;5011561;28;20045;-93
2023/02/21 05:10:26;;;;;;;4.57;3.28;;;0.90;99.90;;;;;;5021768;28;20037;-92
2023/02/21 05:12:52;;;;;;;4.38;3.50;;;1.00;99.90;;;;;;5021321;28;20026;-93
2023/02/21 05:15:18;;;;;;;4.30;3.08;;;1.00;99.90;;;;;;5015545;28;20030;-94
2023/02/21 05:17:45;;;;;;;3.22;2.85;;;1.00;99.90;;;;;;5019002;28;20034;-92
2023/02/21 05:20:11;;;;;;;5.97;3.30;;;0.90;99.90;;;;;;5029268;28;20034;-92
2023/02/21 05:22:39;;;;;;;5.50;3.03;;;0.90;99.90;;;;;;5011619;28;20026;-93
2023/02/21 05:25:26;;;;;;;4.55;3.25;;;1.00;99.90;;;;;;5014449;28;20041;-93
2023/02/21 05:27:52;;;;;;;3.80;3.17;;;1.00;99.90;;;;;;5009072;28;20030;-93
2023/02/21 05:30:22;;;;;;;4.00;3.10;;;0.90;99.90;;;;;;5018447;28;20049;-95
2023/02/21 05:32:48;;;;;;;6.28;3.42;;;0.90;99.90;;;;;;5006720;28;20726;-93
2023/02/21 05:35:15;;;;;;;4.97;3.42;;;0.90;99.90;;;;;;5041826;28;20054;-94
2023/02/21 05:37:42;;;;;;;3.60;2.85;;;1.00;99.90;;;;;;5022194;28;20042;-92
2023/02/21 05:40:11;;;;;;;5.90;3.65;;;1.00;99.90;;;;;;5023939;28;20041;-91
2023/02/21 05:42:37;;;;;;;3.78;2.90;;;1.00;99.90;;;;;;5030928;28;20096;-93
2023/02/21 05:45:05;;;;;;;4.70;3.30;;;0.90;99.90;;;;;;5024147;28;20030;-92
2023/02/21 05:47:33;;;;;;;3.70;2.88;;;0.90;99.90;;;;;;5028912;28;20022;-92
2023/02/21 05:49:59;;;;;;;2.53;2.33;;;0.90;99.90;;;;;;5015374;28;20057;-91
2023/02/21 05:52:26;;;;;;;4.63;3.35;;;0.80;99.90;;;;;;5027470;28;20037;-93
2023/02/21 05:54:52;;;;;;;4.00;3.13;;;0.70;99.90;;;;;;5027999;28;20044;-92
2023/02/21 05:57:18;;;;;;;3.45;3.13;;;0.70;99.90;;;;;;5028416;28;20049;-93
2023/02/21 05:59:46;;;;;;;4.22;2.88;;;0.70;99.90;;;;;;5028342;28;20052;-93
2023/02/21 06:02:13;;;;;;;5.97;2.90;;;0.60;99.90;;;;;;5031251;28;20038;-93
2023/02/21 06:04:39;;;;;;;4.80;2.75;;;0.60;99.90;;;;;;5020502;28;20022;-92
2023/02/21 06:07:05;;;;;;;3.40;3.08;;;0.60;99.90;;;;;;5019487;28;20060;-93
2023/02/21 06:09:31;;;;;;;6.10;3.70;;;0.60;99.90;;;;;;5028545;28;20049;-92
2023/02/21 06:11:57;;;;;;;3.45;3.08;;;0.60;99.90;;;;;;5007385;28;20034;-92
2023/02/21 06:14:23;;;;;;;6.07;4.40;;;0.60;99.90;;;;;;5025562;28;20034;-93
2023/02/21 06:16:49;;;;;;;6.15;3.20;;;0.60;99.90;;;;;;5024135;28;20102;-92
2023/02/21 06:19:18;;;;;;;7.28;3.70;;;0.60;99.90;;;;;;5025735;28;20437;-93
2023/02/21 06:21:47;;;;;;;6.85;3.97;;;0.60;99.90;;;;;;5024493;28;20049;-94
2023/02/21 06:24:13;;;;;;;3.90;3.40;;;0.60;99.90;;;;;;5028650;28;20108;-92
2023/02/21 06:26:39;;;;;;;5.25;3.15;;;0.70;99.90;;;;;;5024761;28;20042;-93
2023/02/21 06:29:06;;;;;;;5.82;3.70;;;0.70;99.90;;;;;;5026289;28;20049;-92
2023/02/21 06:31:32;;;;;;;5.20;3.42;;;0.70;99.90;;;;;;5009005;28;20038;-93
2023/02/21 06:33:58;;;;;;;4.13;2.70;;;0.70;99.90;;;;;;5021832;28;20026;-92
2023/02/21 06:36:27;;;;;;;3.90;2.78;;;0.60;99.90;;;;;;5027649;28;20088;-92
2023/02/21 06:38:54;;;;;;;;;;;0.60;99.90;;;;;;5022641;28;20037;-90
2023/02/21 06:41:23;;;;;;;3.88;3.20;;;0.50;99.90;;;;;;5022905;28;19975;-87
2023/02/21 06:43:50;;;;;;;4.43;3.67;;;0.50;99.90;;;;;;5022627;28;20034;-89
2023/02/21 06:46:17;;;;;;;7.35;3.30;;;0.40;99.90;;;;;;5025860;28;20038;-88
2023/02/21 06:48:43;;;;;;;4.78;3.50;;;0.50;99.90;;;;;;5021573;28;20110;-89
2023/02/21 06:51:10;;;;;;;5.53;3.85;;;0.50;99.90;;;;;;5020510;28;20030;-90
2023/02/21 06:53:37;;;;;;;3.78;2.33;;;0.70;99.90;;;;;;5016632;28;20037;-92
2023/02/21 06:56:03;;;;;;;6.13;4.25;;;0.70;99.90;;;;;;5032638;28;20048;-92
2023/02/21 06:58:29;;;;;;;6.20;3.70;;;0.70;99.90;;;;;;5015909;28;20034;-93
2023/02/21 07:00:55;;;;;;;4.97;3.05;;;0.80;99.90;;;;;;5017144;28;20081;-90
2023/02/21 07:03:20;;;;;;;5.32;4.82;;;0.90;99.90;;;;;;5015275;28;20044;-91
2023/02/21 07:05:46;;;;;;;5.05;3.60;;;1.00;99.90;;;;;;5016181;28;20044;-94
2023/02/21 07:08:12;;;;;;;9.20;4.35;;;1.00;99.90;;;;;;5015362;28;20064;-93
2023/02/21 07:10:38;;;;;;;3.53;3.22;;;0.90;99.90;;;;;;5020560;28;20010;-93
2023/02/21 07:13:03;;;;;;;4.35;3.95;;;1.00;99.90;;;;;;5026275;28;20033;-94
2023/02/21 07:15:29;;;;;;;4.00;3.17;;;1.00;99.90;;;;;;5024753;28;20026;-93
2023/02/21 07:17:55;;;;;;;5.95;4.22;;;1.00;99.90;;;;;;5026567;28;20050;-95
2023/02/21 07:20:21;;;;;;;3.72;3.42;;;1.10;99.90;;;;;;4996434;28;20037;-93
2023/02/21 07:22:47;;;;;;;4.95;3.92;;;1.10;99.90;;;;;;5027634;28;20066;-94
2023/02/21 07:25:19;;;;;;;8.65;4.28;;;1.10;99.90;;;;;;5019967;28;20045;-95
2023/02/21 07:27:46;;;;;;;4.45;3.33;;;1.20;99.90;;;;;;5022595;28;20065;-96
2023/02/21 07:30:16;;;;;;;9.55;4.65;;;1.20;99.90;;;;;;5036223;28;20030;-94
2023/02/21 07:32:42;;;;;;;6.88;4.65;;;1.30;99.90;;;;;;5003082;28;20027;-92
2023/02/21 07:35:08;;;;;;;8.75;4.40;;;1.20;99.90;;;;;;5011546;28;20140;-95
2023/02/21 07:37:34;;;;;;;11.20;5.13;;;1.30;99.90;;;;;;5033207;28;20018;-95
2023/02/21 07:39:59;;;;;;;8.75;6.68;;;1.30;99.90;;;;;;5023048;28;20041;-95
2023/02/21 07:42:26;;;;;;;12.55;6.22;;;1.50;99.90;;;;;;5035490;28;20597;-95
2023/02/21 07:44:56;;;;;;;12.70;6.43;;;1.60;99.90;;;;;;5018222;28;20032;-94
2023/02/21 07:47:23;;;;;;;12.95;6.07;;;1.60;99.90;;;;;;5023864;28;20060;-82
2023/02/21 07:49:48;;;;;;;9.07;5.47;;;1.70;99.90;;;;;;5017957;28;20030;-81
2023/02/21 07:52:14;;;;;;;5.72;3.67;;;1.70;99.90;;;;;;5014092;28;20250;-81
2023/02/21 07:54:40;;;;;;;11.25;4.60;;;1.80;99.90;;;;;;5028391;28;20033;-81
2023/02/21 07:57:06;;;;;;;11.75;4.60;;;2.00;99.90;;;;;;5020674;28;20028;-80
2023/02/21 07:59:31;;;;;;;5.72;3.83;;;2.20;99.90;;;;;;5020957;28;20052;-83
2023/02/21 08:01:57;;;;;;;8.32;3.15;;;2.30;99.90;;;;;;5023315;28;20053;-83
2023/02/21 08:04:23;;;;;;;5.88;3.83;;;2.40;99.90;;;;;;5017350;28;20030;-83
2023/02/21 08:06:49;;;;;;;6.30;4.60;;;2.60;99.90;;;;;;5023434;28;20041;-84
2023/02/21 08:09:15;;;;;;;6.50;3.92;;;2.70;99.90;;;;;;5015403;28;20164;-83
2023/02/21 08:11:40;;;;;;;9.02;3.17;;;2.90;99.90;;;;;;5022498;28;20049;-83
2023/02/21 08:14:06;;;;;;;3.60;3.28;;;3.20;99.90;;;;;;5020742;28;20036;-84
2023/02/21 08:16:32;;;;;;;6.13;4.25;;;3.50;99.90;;;;;;5019431;28;20040;-84
2023/02/21 08:18:57;;;;;;;6.45;4.75;;;3.60;99.90;;;;;;5007083;28;20038;-84
2023/02/21 08:21:23;;;;;;;4.95;4.22;;;3.60;99.90;;;;;;5019434;28;20041;-84
2023/02/21 08:23:54;;;;;;;7.03;4.53;;;3.70;99.90;;;;;;5025357;28;20030;-84
2023/02/21 08:26:21;;;;;;;8.75;4.72;;;3.90;99.90;;;;;;5014458;28;20069;-84
2023/02/21 08:28:47;;;;;;;10.95;5.18;;;4.00;99.90;;;;;;5015027;28;20524;-84
2023/02/21 08:31:13;;;;;;;8.85;5.22;;;4.20;99.90;;;;;;5022194;28;20097;-84
2023/02/21 08:33:39;;;;;;;7.35;4.80;;;4.30;99.90;;;;;;5022673;28;20094;-84
2023/02/21 08:36:05;;;;;;;7.20;5.05;;;4.40;99.90;;;;;;5011849;28;20065;-84
2023/02/21 08:38:30;;;;;;;7.47;4.90;;;4.70;99.90;;;;;;5019259;28;20377;-84
2023/02/21 08:40:56;;;;;;;5.55;3.58;;;4.90;99.90;;;;;;5021040;28;20037;-84
2023/02/21 08:43:23;;;;;;;7.25;4.00;;;5.10;99.90;;;;;;5024105;28;20037;-84
2023/02/21 08:45:49;;;;;;;9.00;4.57;;;5.40;99.90;;;;;;5018180;28;20049;-84
2023/02/21 08:48:14;;;;;;;5.28;3.63;;;5.60;99.90;;;;;;5022592;28;20049;-85
2023/02/21 08:50:40;;;;;;;5.88;4.20;;;5.70;99.90;;;;;;5012128;28;20052;-85
2023/02/21 08:53:06;;;;;;;6.10;4.03;;;5.90;99.90;;;;;;5014579;28;20022;-85
2023/02/21 08:55:31;;;;;;;5.35;3.58;;;6.20;99.90;;;;;;5013705;28;20035;-86
2023/02/21 08:57:57;;;;;;;3.63;2.95;;;6.50;99.90;;;;;;5027341;28;20100;-85
2023/02/21 09:00:27;;;;;;;6.57;4.50;;;6.60;99.90;;;;;;5015997;28;20030;-85
2023/02/21 09:02:53;;;;;;;5.00;3.58;;;6.80;99.90;;;;;;5020269;28;20555;-85
2023/02/21 09:05:23;;;;;;;5.68;3.67;;;7.00;99.90;;;;;;4995129;28;20041;-85
2023/02/21 09:07:50;;;;;;;7.15;3.67;;;7.10;99.90;;;;;;5028956;28;20014;-85
2023/02/21 09:10:16;;;;;;;3.03;2.28;;;7.40;99.90;;;;;;5025519;28;20029;-86
2023/02/21 09:12:42;;;;;;;6.60;3.83;;;7.50;99.90;;;;;;5033742;28;20025;-85
2023/02/21 09:15:08;;;;;;;4.53;3.05;;;7.60;99.90;;;;;;5029022;28;20037;-85
2023/02/21 09:17:34;;;;;;;4.95;3.50;;;7.80;99.90;;;;;;5027722;28;20029;-86
2023/02/21 09:20:03;;;;;;;5.32;3.67;;;8.00;99.90;;;;;;5028824;28;20036;-86
2023/02/21 09:22:30;;;;;;;4.47;3.40;;;8.00;99.90;;;;;;5024214;28;20097;-86
2023/02/21 09:24:56;;;;;;;6.88;3.35;;;8.20;99.90;;;;;;5028475;28;20037;-86
2023/02/21 09:27:35;;;;;;;5.28;3.67;;;8.30;99.90;;;;;;5025110;28;20045;-86
2023/02/21 09:30:11;;;;;;;;;;;8.40;99.90;;;;;;5029292;28;20098;-86
2023/02/21 09:32:38;;;;;;;4.57;3.55;;;8.60;99.90;;;;;;5026511;28;19937;-86
2023/02/21 09:35:04;;;;;;;4.03;3.53;;;8.80;99.90;;;;;;5036442;28;20057;-86
2023/02/21 09:37:31;;;;;;;3.72;3.30;;;8.90;99.90;;;;;;5024004;28;20042;-86
2023/02/21 09:39:58;;;;;;;4.80;3.08;;;9.00;99.90;;;;;;5021658;28;20030;-86
2023/02/21 09:42:29;;;;;;;4.93;3.00;;;9.10;99.90;;;;;;5023793;28;20041;-86
2023/02/21 09:44:55;;;;;;;5.32;3.22;;;9.30;99.90;;;;;;5025269;28;20037;-86
2023/02/21 09:47:30;;;;;;;6.15;3.35;;;9.60;99.90;;;;;;5021809;28;20014;-87
2023/02/21 09:50:04;;;;;;;3.72;2.80;;;9.70;99.90;;;;;;5040722;28;20072;-87
2023/02/21 09:52:33;;;;;;;5.07;2.95;;;9.90;99.90;;;;;;5022892;28;20030;-87
2023/02/21 09:55:04;;;;;;;5.20;2.92;;;9.90;99.90;;;;;;5017492;28;20030;-87
2023/02/21 09:57:30;;;;;;;5.20;2.67;;;10.10;99.90;;;;;;5014416;28;20038;-87
2023/02/21 09:59:55;;;;;;;4.97;3.08;;;10.30;99.90;;;;;;5028157;28;20514;-87
2023/02/21 10:03:06;;;;;;;6.78;2.30;;;10.40;99.90;;;;;;5028343;28;20093;-88
2023/02/21 10:05:47;;;;;;;4.03;2.80;;;10.50;99.90;;;;;;5013825;28;20036;-87
2023/02/21 10:08:31;;;;;;;3.95;2.50;;;10.60;99.90;;;;;;5022565;28;20030;-87
2023/02/21 10:11:23;;;;;;;4.93;2.45;;;10.70;99.90;;;;;;5021329;28;20027;-87
2023/02/21 10:13:55;;;;;;;3.05;2.42;;;10.90;99.90;;;;;;5018346;28;20038;-86
2023/02/21 10:16:28;;;;;;;4.68;2.72;;;11.00;99.90;;;;;;5019010;28;20014;-87
2023/02/21 10:19:16;;;;;;;4.13;2.33;;;11.10;99.90;;;;;;5021371;28;20414;-86
2023/02/21 10:21:44;;;;;;;4.60;3.22;;;11.30;99.90;;;;;;5021499;28;20642;-86
2023/02/21 10:24:28;;;;;;;3.45;2.33;;;11.30;99.90;;;;;;5024782;28;20126;-87
2023/02/21 10:27:00;;;;;;;5.00;2.70;;;11.60;98.50;;;;;;5024225;28;20057;-87
2023/02/21 10:29:47;;;;;;;4.40;1.90;;;11.50;98.90;;;;;;5015719;28;20014;-87
2023/02/21 10:32:13;;;;;;;3.67;2.20;;;11.60;97.20;;;;;;5014441;28;20037;-87
2023/02/21 10:34:42;;;;;;;1.88;1.60;;;11.60;98.30;;;;;;5017907;28;20634;-88
2023/02/21 10:37:33;;;;;;;4.88;2.10;;;11.60;98.80;;;;;;5000559;28;20034;-86
2023/02/21 10:40:10;;;;;;;2.03;1.50;;;11.90;98.50;;;;;;5038295;28;20029;-87
2023/02/21 10:42:41;;;;;;;1.23;1.10;;;12.00;97.80;;;;;;5024580;28;20026;-87
2023/02/21 10:45:10;;;;;;;2.17;1.60;;;12.20;93.60;;;;;;5036728;28;20037;-87
2023/02/21 10:47:59;;;;;;;2.92;2.00;;;12.00;92.80;;;;;;5018358;28;20042;-87
2023/02/21 10:50:40;;;;;;;2.63;1.73;;;12.20;97.80;;;;;;5025082;28;20121;-87
2023/02/21 10:53:07;;;;;;;4.28;1.80;;;12.30;96.20;;;;;;5019786;28;20069;-86
2023/02/21 10:55:33;;;;;;;3.08;1.70;;;12.40;93.10;;;;;;5021482;28;20045;-88
2023/02/21 10:58:10;;;;;;;4.68;2.92;;;12.50;94.50;;;;;;5022110;28;20042;-87
2023/02/21 11:00:40;;;;;;;2.85;2.05;;;12.60;94.80;;;;;;5016502;28;20046;-87
2023/02/21 11:03:20;;;;;;;2.42;1.83;;;12.60;95.00;;;;;;5017044;28;20030;-87
2023/02/21 11:05:50;;;;;;;4.90;2.03;;;12.70;91.50;;;;;;5020919;28;20037;-88
2023/02/21 11:08:41;;;;;;;1.77;1.67;;;12.70;93.10;;;;;;5019070;28;20030;-87
2023/02/21 11:11:07;;;;;;;3.05;1.80;;;12.70;88.50;;;;;;5043767;28;20040;-85
2023/02/21 11:13:34;;;;;;;1.65;1.55;;;12.60;87.30;;;;;;5019280;28;20038;-84
2023/02/21 11:16:29;;;;;;;1.87;1.77;;;12.70;90.70;;;;;;5024950;28;20041;-85
2023/02/21 11:19:11;;;;;;;3.00;2.00;;;12.80;82.00;;;;;;5022283;28;20141;-86
2023/02/21 11:21:37;;;;;;;3.22;1.65;;;12.70;90.70;;;;;;5018167;28;20022;-86
2023/02/21 11:24:05;;;;;;;2.75;1.65;;;12.70;86.70;;;;;;5011999;28;20037;-85
2023/02/21 11:26:53;;;;;;;2.55;1.88;;;12.60;89.10;;;;;;5011346;28;20034;-85
2023/02/21 11:29:21;;;;;;;;;;;12.70;91.10;;;;;;5019299;28;20129;-85
2023/02/21 11:31:47;;;;;;;1.10;0.95;;;12.70;84.20;;;;;;5026229;28;20320;-85
2023/02/21 11:34:14;;;;;;;2.53;1.60;;;12.70;86.30;;;;;;5019060;28;20026;-85
2023/02/21 11:36:44;;;;;;;1.60;1.50;;;12.80;89.30;;;;;;5014969;28;20040;-86
2023/02/21 11:39:19;;;;;;;1.95;1.38;;;12.80;90.60;;;;;;5016516;28;20069;-85
2023/02/21 11:41:50;;;;;;;1.40;1.30;;;12.90;82.90;;;;;;5015772;28;20097;-85
2023/02/21 11:44:37;;;;;;;2.45;1.65;;;13.00;90.50;;;;;;5019352;28;20057;-86
2023/02/21 11:47:24;;;;;;;1.30;1.20;;;13.00;89.50;;;;;;5022609;28;20046;-85
2023/02/21 11:50:02;;;;;;;2.83;1.60;;;13.00;89.50;;;;;;5020048;28;20037;-85
2023/02/21 11:52:34;;;;;;;2.50;1.30;;;12.90;89.60;;;;;;5019606;28;20061;-85
2023/02/21 11:55:00;;;;;;;1.48;1.38;;;12.90;89.10;;;;;;5025257;28;20025;-85
2023/02/21 11:57:59;;;;;;;2.42;1.13;;;13.00;88.60;;;;;;5022637;28;20034;-85
2023/02/21 12:01:05;;;;;;;1.80;1.48;;;13.10;90.10;;;;;;5020796;28;20018;-85
2023/02/21 12:03:53;;;;;;;1.50;1.40;;;13.10;88.40;;;;;;5026385;28;20144;-86
2023/02/21 12:06:35;;;;;;;1.17;0.80;;;13.10;85.50;;;;;;5020634;28;20010;-85
2023/02/21 12:09:24;;;;;;;2.50;1.25;;;13.30;79.60;;;;;;5025787;28;20128;-87
2023/02/21 12:12:02;;;;;;;2.53;1.25;;;13.30;83.40;;;;;;5027619;28;20039;-86
2023/02/21 12:14:50;;;;;;;1.00;1.00;;;13.20;84.90;;;;;;5021193;28;20093;-86
2023/02/21 12:17:19;;;;;;;;;;;13.20;84.70;;;;;;5013261;28;20050;-84
2023/02/21 12:20:24;;;;;;;2.17;1.20;;;13.30;78.20;;;;;;5016800;28;19914;-85
2023/02/21 12:23:33;;;;;;;1.30;1.20;;;13.30;75.30;;;;;;5021869;28;20073;-85
2023/02/21 12:26:10;;;;;;;1.30;1.20;;;13.50;82.30;;;;;;5026530;28;20073;-86
2023/02/21 12:28:44;;;;;;;0.90;0.90;;;13.50;77.30;;;;;;5023722;28;20056;-86
2023/02/21 12:31:45;;;;;;;1.80;1.00;;;13.40;75.10;;;;;;5014380;28;20041;-86
2023/02/21 12:34:28;;;;;;;1.08;0.98;;;13.50;75.60;;;;;;5033028;28;20034;-85
2023/02/21 12:37:01;;;;;;;1.27;1.17;;;13.60;75.30;;;;;;5018847;28;20015;-86
2023/02/21 12:39:40;;;;;;;1.10;1.00;;;13.60;72.50;;;;;;5020190;28;20010;-85
2023/02/21 12:42:46;;;;;;;1.15;0.95;;;13.70;76.00;;;;;;5015592;28;20009;-86
2023/02/21 12:46:03;;;;;;;1.20;1.10;;;13.80;71.00;;;;;;5033296;28;20030;-85
2023/02/21 12:48:44;;;;;;;1.80;1.30;;;13.70;73.30;;;;;;5014185;28;20050;-86
2023/02/21 12:51:16;;;;;;;1.80;1.30;;;13.60;78.20;;;;;;5025967;28;20106;-86
2023/02/21 12:53:53;;;;;;;1.20;1.10;;;13.60;74.10;;;;;;5020172;28;20030;-85
2023/02/21 12:56:41;;;;;;;3.97;1.33;;;13.90;75.70;;;;;;5027637;28;20025;-86
2023/02/21 12:59:32;;;;;;;1.40;1.30;;;13.80;73.50;;;;;;5024450;28;20034;-86
2023/02/21 13:02:17;;;;;;;1.48;1.08;;;13.70;72.10;;;;;;5025875;28;20034;-85
2023/02/21 13:04:56;;;;;;;2.45;1.20;;;13.80;74.60;;;;;;5030935;28;20094;-86
2023/02/21 13:07:36;;;;;;;1.70;1.42;;;13.80;76.50;;;;;;5035863;28;20021;-87
2023/02/21 13:10:17;;;;;;;1.63;1.27;;;13.70;73.50;;;;;;5024679;28;20088;-87
2023/02/21 13:13:06;;;;;;;2.22;1.35;;;13.70;69.20;;;;;;5020495;28;20022;-87
2023/02/21 13:15:32;;;;;;;1.88;1.20;;;13.60;71.30;;;;;;5031109;28;20022;-88
2023/02/21 13:18:04;;;;;;;1.38;1.27;;;13.60;73.00;;;;;;5028170;28;20117;-87
2023/02/21 13:20:42;;;;;;;2.05;1.23;;;13.70;75.80;;;;;;5028947;28;20049;-87
2023/02/21 13:26:27;;;;;;;1.30;1.20;;;13.80;75.00;;;;;;5030591;28;20068;-87
2023/02/21 13:28:55;;;;;;;1.67;1.20;;;13.90;74.90;;;;;;5028242;28;20026;-88
2023/02/21 13:31:24;;;;;;;1.40;1.30;;;13.80;73.10;;;;;;5017555;28;20069;-87
2023/02/21 13:33:54;;;;;;;1.08;1.00;;;13.80;74.00;;;;;;5033523;28;20037;-87
2023/02/21 13:36:20;;;;;;;1.20;1.10;;;13.90;71.90;;;;;;5025549;28;20061;-87
2023/02/21 13:38:55;;;;;;;1.92;1.50;;;14.00;72.80;;;;;;5031000;28;20037;-87
2023/02/21 13:41:27;;;;;;;1.98;1.05;;;14.00;70.60;;;;;;5015156;28;20037;-87
2023/02/21 13:43:54;;;;;;;2.15;1.10;;;14.10;68.60;;;;;;5028171;28;20054;-88
2023/02/21 13:46:22;;;;;;;1.33;1.20;;;14.10;69.00;;;;;;5020314;28;20447;-87
2023/02/21 13:49:26;;;;;;;1.20;1.10;;;14.20;70.30;;;;;;5035160;28;20064;-88
2023/02/21 13:51:54;;;;;;;1.20;1.10;;;14.20;70.50;;;;;;5026038;28;20028;-87
2023/02/21 13:54:23;;;;;;;1.25;1.15;;;14.10;72.80;;;;;;5023965;28;20034;-88
2023/02/21 13:56:50;;;;;;;1.10;1.00;;;14.10;71.60;;;;;;5017516;28;20037;-87
2023/02/21 13:59:25;;;;;;;1.23;0.85;;;14.10;72.00;;;;;;5017697;28;20495;-87
2023/02/21 14:02:11;;;;;;;1.52;1.00;;;14.20;75.10;;;;;;5027471;28;20073;-88
2023/02/21 14:04:51;;;;;;;1.52;1.20;;;14.30;66.90;;;;;;5016357;28;20030;-87
2023/02/21 14:08:03;;;;;;;1.20;1.10;;;14.30;69.60;;;;;;5023315;28;20030;-87
2023/02/21 14:10:44;;;;;;;1.25;1.00;;;14.30;69.60;;;;;;5027049;28;20053;-87
2023/02/21 14:13:37;;;;;;;1.40;1.00;;;14.30;70.70;;;;;;5021842;28;20034;-87
2023/02/21 14:16:12;;;;;;;1.00;1.00;;;14.30;72.00;;;;;;5030703;28;20032;-87
2023/02/21 14:18:37;;;;;;;1.65;0.90;;;14.20;74.60;;;;;;5028988;28;20034;-87
2023/02/21 14:21:08;;;;;;;3.00;1.33;;;14.20;70.40;;;;;;5021090;28;20105;-87
2023/02/21 14:24:01;;;;;;;4.85;1.05;;;14.40;68.70;;;;;;5013046;28;20062;-86
2023/02/21 14:26:35;;;;;;;0.90;0.90;;;14.60;68.50;;;;;;5029581;28;20038;-87
2023/02/21 14:29:10;;;;;;;0.82;0.70;;;14.60;71.60;;;;;;5029235;28;20029;-86
2023/02/21 14:31:50;;;;;;;0.82;0.82;;;14.60;69.90;;;;;;5023660;28;20049;-86
2023/02/21 14:34:32;;;;;;;1.95;0.95;;;14.80;68.60;;;;;;5037072;28;20033;-86
2023/02/21 14:37:21;;;;;;;2.50;0.82;;;14.90;65.00;;;;;;5030195;28;20075;-87
2023/02/21 14:39:51;;;;;;;6.60;1.00;;;14.90;69.20;;;;;;5025374;28;20046;-87
2023/02/21 14:42:22;;;;;;;0.77;0.70;;;15.00;66.30;;;;;;5028712;28;20037;-87
2023/02/21 14:45:24;;;;;;;2.38;0.80;;;15.10;63.30;;;;;;5023022;28;20030;-87
2023/02/21 14:48:04;;;;;;;1.33;0.70;;;15.10;65.00;;;;;;5014113;28;20050;-88
2023/02/21 14:51:06;;;;;;;0.93;0.70;;;15.10;67.50;;;;;;5013083;28;20034;-87
2023/02/21 14:53:59;;;;;;;0.68;0.68;;;15.00;68.90;;;;;;5026400;28;20089;-87
2023/02/21 14:56:58;;;;;;;2.03;0.80;;;15.10;65.50;;;;;;5020290;28;20065;-87
2023/02/21 14:59:49;;;;;;;0.57;0.57;;;15.00;65.50;;;;;;5016552;28;20037;-87
2023/02/21 15:02:38;;;;;;;1.35;0.90;;;15.10;67.10;;;;;;5025715;28;20038;-87
2023/02/21 15:05:14;;;;;;;2.60;0.88;;;15.00;68.00;;;;;;5027712;28;20032;-87
2023/02/21 15:07:47;;;;;;;1.17;0.77;;;15.00;67.00;;;;;;5020051;28;20118;-89
2023/02/21 15:10:20;;;;;;;1.65;1.02;;;14.90;69.80;;;;;;5021676;28;20037;-88
2023/02/21 15:12:56;;;;;;;0.80;0.80;;;14.80;70.20;;;;;;5025066;28;20038;-87
2023/02/21 15:15:24;;;;;;;0.80;0.80;;;14.80;66.20;;;;;;5013294;28;20053;-88
2023/02/21 15:18:03;;;;;;;1.00;1.00;;;14.90;65.20;;;;;;5025448;28;20033;-87
2023/02/21 15:20:30;;;;;;;1.52;1.15;;;14.90;66.20;;;;;;5012838;28;20088;-87
2023/02/21 15:23:15;;;;;;;1.25;1.00;;;14.80;65.80;;;;;;5033789;28;20039;-87
2023/02/21 15:25:53;;;;;;;1.13;0.90;;;14.90;64.30;;;;;;5025098;28;20037;-88
2023/02/21 15:28:24;;;;;;;0.90;0.90;;;14.70;66.00;;;;;;5029906;28;20029;-87
2023/02/21 15:31:06;;;;;;;0.80;0.80;;;14.60;69.90;;;;;;5027530;28;20277;-87
2023/02/21 15:33:41;;;;;;;0.80;0.80;;;14.60;72.90;;;;;;5019906;28;20034;-87
2023/02/21 15:36:23;;;;;;;0.80;0.80;;;14.40;81.40;;;;;;5017951;28;20042;-87
2023/02/21 15:39:04;;;;;;;1.17;0.80;;;14.30;84.60;;;;;;5018830;28;20056;-88